createdAt,value
2019-02-05T00:00:32.844Z,28.3
2019-02-05T00:01:20.546Z,28.6
2019-02-05T00:02:10.312Z,28.8
2019-02-05T00:03:00.640Z,29.1
2019-02-05T00:03:52.348Z,29.3
2019-02-05T00:04:39.432Z,29.5
2019-02-05T00:05:31.100Z,29.7
2019-02-05T00:06:21.286Z,29.7
2019-02-05T00:07:10.642Z,29.6
2019-02-05T00:08:00.978Z,29.4
2019-02-05T00:08:51.885Z,29.3
2019-02-05T00:09:43.185Z,29.2
2019-02-05T00:10:30.128Z,29.1
2019-02-05T00:11:20.926Z,28.9
2019-02-05T00:12:11.098Z,28.8
2019-02-05T00:13:02.114Z,28.6
2019-02-05T00:13:50.929Z,28.5
2019-02-05T00:15:32.201Z,27.1
2019-02-05T00:16:21.400Z,26.8
2019-02-05T00:17:11.695Z,26.6
2019-02-05T00:18:01.318Z,26.4
2019-02-05T00:18:55.051Z,26.3
2019-02-05T00:19:41.821Z,26.6
2019-02-05T00:20:31.963Z,26.8
2019-02-05T00:21:21.480Z,26.8
2019-02-05T00:22:11.836Z,27.1
2019-02-05T00:23:01.591Z,27.3
2019-02-05T00:23:51.385Z,27.6
2019-02-05T00:25:32.082Z,28.1
2019-02-05T00:26:22.835Z,28.4
2019-02-05T00:27:12.655Z,28.7
2019-02-05T00:28:05.563Z,28.9
2019-02-05T00:28:53.010Z,29.2
2019-02-05T00:29:42.352Z,29.4
2019-02-05T00:30:32.344Z,29.6
2019-02-05T00:31:22.909Z,29.7
2019-02-05T00:32:12.420Z,29.6
2019-02-05T00:33:01.977Z,29.6
2019-02-05T00:33:53.281Z,29.4
2019-02-05T00:34:42.886Z,29.3
2019-02-05T00:35:33.499Z,29.2
2019-02-05T00:36:22.417Z,29
2019-02-05T00:37:15.524Z,28.9
2019-02-05T00:38:03.394Z,28.8
2019-02-05T00:38:53.451Z,28.6
2019-02-05T00:39:43.219Z,28.5
2019-02-05T00:40:34.441Z,27.9
2019-02-05T00:41:23.889Z,27.2
2019-02-05T00:42:13.944Z,26.8
2019-02-05T00:43:03.877Z,26.6
2019-02-05T00:43:53.784Z,26.4
2019-02-05T00:44:43.656Z,26.2
2019-02-05T00:45:34.181Z,26.6
2019-02-05T00:46:25.564Z,26.8
2019-02-05T00:47:13.801Z,26.8
2019-02-05T00:48:04.281Z,27.1
2019-02-05T00:48:54.129Z,27.3
2019-02-05T00:49:45.139Z,27.6
2019-02-05T00:50:33.816Z,27.9
2019-02-05T00:51:24.281Z,28.1
2019-02-05T00:52:15.097Z,28.4
2019-02-05T00:53:04.440Z,28.7
2019-02-05T00:53:55.391Z,28.9
2019-02-05T00:54:44.698Z,29.2
2019-02-05T00:55:36.698Z,29.4
2019-02-05T00:56:26.881Z,29.6
2019-02-05T00:57:15.270Z,29.7
2019-02-05T00:58:04.640Z,29.6
2019-02-05T00:58:55.743Z,29.5
2019-02-05T00:59:44.960Z,29.4
2019-02-05T01:00:35.342Z,29.3
2019-02-05T01:01:25.845Z,29.1
2019-02-05T01:02:15.120Z,29
2019-02-05T01:03:05.960Z,28.9
2019-02-05T01:03:55.130Z,28.8
2019-02-05T01:04:48.815Z,28.6
2019-02-05T01:05:35.343Z,28.4
2019-02-05T01:06:25.633Z,28
2019-02-05T01:07:15.685Z,27.3
2019-02-05T01:08:06.602Z,26.9
2019-02-05T01:08:56.120Z,26.6
2019-02-05T01:09:45.322Z,26.4
2019-02-05T01:10:37.324Z,26.3
2019-02-05T01:11:26.387Z,26.4
2019-02-05T01:12:15.773Z,26.8
2019-02-05T01:13:04.947Z,26.8
2019-02-05T01:13:58.159Z,27
2019-02-05T01:14:45.491Z,27.3
2019-02-05T01:15:35.030Z,27.5
2019-02-05T01:17:15.336Z,28.1
2019-02-05T01:18:06.228Z,28.4
2019-02-05T01:18:56.524Z,28.6
2019-02-05T01:19:47.359Z,28.9
2019-02-05T01:20:36.744Z,29.1
2019-02-05T01:21:26.149Z,29.4
2019-02-05T01:22:17.044Z,29.6
2019-02-05T01:23:08.554Z,29.7
2019-02-05T01:23:56.324Z,29.6
2019-02-05T01:24:47.213Z,29.5
2019-02-05T01:25:37.421Z,29.4
2019-02-05T01:26:40.248Z,29.3
2019-02-05T01:27:16.346Z,29.1
2019-02-05T01:28:07.206Z,29
2019-02-05T01:28:58.739Z,28.9
2019-02-05T01:29:47.061Z,28.8
2019-02-05T01:30:37.476Z,28.6
2019-02-05T01:31:27.679Z,28.5
2019-02-05T01:32:19.993Z,28.4
2019-02-05T01:33:07.638Z,27.3
2019-02-05T01:33:57.061Z,26.9
2019-02-05T01:34:47.923Z,26.6
2019-02-05T01:35:38.174Z,26.4
2019-02-05T01:36:26.703Z,26.3
2019-02-05T01:37:17.940Z,26.3
2019-02-05T01:38:08.388Z,26.7
2019-02-05T01:38:57.151Z,26.7
2019-02-05T01:39:47.027Z,26.9
2019-02-05T01:40:37.785Z,27.1
2019-02-05T01:41:30.978Z,27.4
2019-02-05T01:42:17.353Z,27.7
2019-02-05T01:43:07.511Z,28
2019-02-05T01:43:56.958Z,28.3
2019-02-05T01:44:48.331Z,28.6
2019-02-05T01:45:38.168Z,28.8
2019-02-05T01:46:28.767Z,29.1
2019-02-05T01:47:18.630Z,29.3
2019-02-05T01:48:07.295Z,29.5
2019-02-05T01:48:58.952Z,29.7
2019-02-05T01:49:48.514Z,29.7
2019-02-05T01:50:40.760Z,29.6
2019-02-05T01:51:28.795Z,29.5
2019-02-05T01:52:17.872Z,29.3
2019-02-05T01:53:08.177Z,29.3
2019-02-05T01:53:59.384Z,29.1
2019-02-05T01:54:48.242Z,28.9
2019-02-05T01:55:39.192Z,28.8
2019-02-05T01:56:41.131Z,28.7
2019-02-05T01:57:19.212Z,28.5
2019-02-05T01:58:08.872Z,28.4
2019-02-05T01:58:58.820Z,27.5
2019-02-05T01:59:51.742Z,27
2019-02-05T02:00:39.561Z,26.7
2019-02-05T02:01:29.601Z,26.5
2019-02-05T02:02:18.506Z,26.3
2019-02-05T02:03:10.354Z,26.3
2019-02-05T02:03:59.171Z,26.7
2019-02-05T02:04:49.851Z,26.8
2019-02-05T02:05:41.247Z,26.9
2019-02-05T02:06:29.142Z,27.2
2019-02-05T02:07:19.225Z,27.4
2019-02-05T02:08:09.625Z,27.8
2019-02-05T02:09:01.868Z,28
2019-02-05T02:09:49.366Z,28.3
2019-02-05T02:10:40.093Z,28.6
2019-02-05T02:11:29.554Z,28.8
2019-02-05T02:12:20.546Z,29.1
2019-02-05T02:13:09.683Z,29.3
2019-02-05T02:14:00.711Z,29.5
2019-02-05T02:14:52.146Z,29.7
2019-02-05T02:15:40.605Z,29.6
2019-02-05T02:16:30.865Z,29.5
2019-02-05T02:17:20.471Z,29.4
2019-02-05T02:18:12.911Z,29.3
2019-02-05T02:18:58.707Z,29.1
2019-02-05T02:19:50.828Z,29
2019-02-05T02:20:40.348Z,28.9
2019-02-05T02:21:30.090Z,28.8
2019-02-05T02:22:20.894Z,28.6
2019-02-05T02:23:11.125Z,28.5
2019-02-05T02:24:03.314Z,28.4
2019-02-05T02:24:51.565Z,27.5
2019-02-05T02:25:41.224Z,27
2019-02-05T02:26:30.768Z,26.7
2019-02-05T02:27:24.040Z,26.4
2019-02-05T02:28:11.143Z,26.3
2019-02-05T02:29:01.189Z,26.3
2019-02-05T02:29:52.317Z,26.7
2019-02-05T02:30:41.445Z,26.7
2019-02-05T02:31:30.740Z,26.9
2019-02-05T02:32:22.069Z,27.2
2019-02-05T02:33:14.187Z,27.4
2019-02-05T02:34:01.317Z,27.7
2019-02-05T02:34:51.727Z,28
2019-02-05T02:35:41.670Z,28.3
2019-02-05T02:36:32.673Z,28.6
2019-02-05T02:37:22.141Z,28.8
2019-02-05T02:38:11.473Z,29.1
2019-02-05T02:39:02.137Z,29.3
2019-02-05T02:39:51.718Z,29.5
2019-02-05T02:40:41.521Z,29.7
2019-02-05T02:41:31.199Z,29.6
2019-02-05T02:42:24.741Z,29.6
2019-02-05T02:43:10.956Z,29.4
2019-02-05T02:44:02.859Z,29.3
2019-02-05T02:44:51.042Z,29.1
2019-02-05T02:45:43.097Z,29
2019-02-05T02:46:31.687Z,28.9
2019-02-05T02:47:22.576Z,28.8
2019-02-05T02:48:12.689Z,28.6
2019-02-05T02:49:02.974Z,28.5
2019-02-05T02:49:52.859Z,28.4
2019-02-05T02:50:43.472Z,27.6
2019-02-05T02:51:34.875Z,27.1
2019-02-05T02:52:22.998Z,26.7
2019-02-05T02:53:12.513Z,26.5
2019-02-05T02:54:03.210Z,26.3
2019-02-05T02:54:58.101Z,26.3
2019-02-05T02:55:43.610Z,26.7
2019-02-05T02:56:33.116Z,26.8
2019-02-05T02:57:24.086Z,26.9
2019-02-05T02:58:17.043Z,27.2
2019-02-05T02:59:03.525Z,27.4
2019-02-05T02:59:52.766Z,27.7
2019-02-05T03:00:45.726Z,28
2019-02-05T03:01:33.237Z,28.3
2019-02-05T03:02:23.280Z,28.6
2019-02-05T03:03:13.729Z,28.8
2019-02-05T03:04:04.080Z,29.1
2019-02-05T03:04:53.313Z,29.3
2019-02-05T03:08:25.671Z,29.5
2019-02-05T03:09:15.955Z,29.4
2019-02-05T03:10:07.702Z,29.2
2019-02-05T03:10:56.095Z,29.1
2019-02-05T03:11:46.083Z,28.9
2019-02-05T03:12:35.901Z,28.8
2019-02-05T03:13:29.544Z,28.7
2019-02-05T03:14:16.412Z,28.6
2019-02-05T03:15:06.852Z,28.4
2019-02-05T03:15:57.047Z,28.3
2019-02-05T03:16:47.114Z,27.5
2019-02-05T03:17:36.024Z,26.9
2019-02-05T03:18:26.409Z,26.6
2019-02-05T03:19:19.879Z,26.4
2019-02-05T03:20:07.141Z,26.3
2019-02-05T03:20:56.560Z,26.4
2019-02-05T03:21:46.574Z,26.7
2019-02-05T03:22:36.196Z,26.8
2019-02-05T03:23:26.609Z,26.9
2019-02-05T03:24:17.189Z,27.2
2019-02-05T03:25:09.819Z,27.5
2019-02-05T03:25:56.919Z,27.8
2019-02-05T03:26:47.359Z,28
2019-02-05T03:27:36.911Z,28.3
2019-02-05T03:28:27.139Z,28.6
2019-02-05T03:29:16.995Z,28.8
2019-02-05T03:30:07.293Z,29
2019-02-05T03:31:02.021Z,29.3
2019-02-05T03:31:48.017Z,29.4
2019-02-05T03:32:37.662Z,29.6
2019-02-05T03:33:28.587Z,29.7
2019-02-05T03:34:18.431Z,29.6
2019-02-05T03:35:08.644Z,29.5
2019-02-05T03:35:57.851Z,29.4
2019-02-05T03:36:48.586Z,29.3
2019-02-05T03:37:37.243Z,29.1
2019-02-05T03:38:27.274Z,28.9
2019-02-05T03:39:17.605Z,28.8
2019-02-05T03:40:10.945Z,28.7
2019-02-05T03:40:58.048Z,28.6
2019-02-05T03:41:48.316Z,28.4
2019-02-05T03:42:39.018Z,27.8
2019-02-05T03:43:27.606Z,27.1
2019-02-05T03:44:17.986Z,26.8
2019-02-05T03:45:08.408Z,26.6
2019-02-05T03:46:01.220Z,26.4
2019-02-05T03:46:48.293Z,26.2
2019-02-05T03:47:37.517Z,26.6
2019-02-05T03:48:28.380Z,26.8
2019-02-05T03:49:18.607Z,26.8
2019-02-05T03:50:09.246Z,27.1
2019-02-05T03:50:59.027Z,27.3
2019-02-05T03:51:50.740Z,27.6
2019-02-05T03:52:39.105Z,27.9
2019-02-05T03:53:27.999Z,28.1
2019-02-05T03:54:19.222Z,28.4
2019-02-05T03:55:10.135Z,28.6
2019-02-05T03:55:59.272Z,28.4
2019-02-05T03:56:49.292Z,28.4
2019-02-05T03:59:40.111Z,27.9
2019-02-05T03:59:53.719Z,25.4
2019-02-05T04:00:40.691Z,25.2
2019-02-05T04:01:31.370Z,24.9
2019-02-05T04:02:21.162Z,25.1
2019-02-05T04:03:12.461Z,25.6
2019-02-05T04:04:01.499Z,26.1
2019-02-05T04:04:51.286Z,26.5
2019-02-05T04:05:42.418Z,26.9
2019-02-05T04:06:31.401Z,27.1
2019-02-05T04:07:21.176Z,27.4
2019-02-05T04:09:03.744Z,28.1
2019-02-05T04:09:51.744Z,28.4
2019-02-05T04:10:41.654Z,28.7
2019-02-05T04:11:32.028Z,28.9
2019-02-05T04:12:21.301Z,29.2
2019-02-05T04:13:12.138Z,29.4
2019-02-05T04:14:01.913Z,29.6
2019-02-05T04:14:52.239Z,29.7
2019-02-05T04:15:42.579Z,29.6
2019-02-05T04:16:31.829Z,29.4
2019-02-05T04:17:22.221Z,29.3
2019-02-05T04:18:14.239Z,29.2
2019-02-05T04:19:02.246Z,29.1
2019-02-05T04:19:52.376Z,28.9
2019-02-05T04:20:42.666Z,28.8
2019-02-05T04:21:32.444Z,28.7
2019-02-05T04:22:22.760Z,28.6
2019-02-05T04:23:12.399Z,28.4
2019-02-05T04:24:04.447Z,27.9
2019-02-05T04:24:52.946Z,27.2
2019-02-05T04:25:42.914Z,26.8
2019-02-05T04:26:32.728Z,26.5
2019-02-05T04:27:25.652Z,26.3
2019-02-05T04:28:12.141Z,26.3
2019-02-05T04:29:03.571Z,26.6
2019-02-05T04:29:53.428Z,26.8
2019-02-05T04:30:43.236Z,26.9
2019-02-05T04:31:33.723Z,27.1
2019-02-05T04:32:23.245Z,27.4
2019-02-05T04:33:15.973Z,27.7
2019-02-05T04:34:03.419Z,28
2019-02-05T04:34:53.133Z,28.3
2019-02-05T04:35:43.978Z,28.6
2019-02-05T04:36:35.240Z,28.8
2019-02-05T04:37:23.287Z,29.1
2019-02-05T04:38:13.150Z,29.3
2019-02-05T04:39:03.830Z,29.5
2019-02-05T04:39:54.115Z,29.7
2019-02-05T04:40:44.393Z,29.6
2019-02-05T04:41:34.430Z,29.6
2019-02-05T04:42:27.077Z,29.4
2019-02-05T04:43:13.707Z,29.3
2019-02-05T04:44:03.771Z,29.2
2019-02-05T04:44:54.245Z,29.1
2019-02-05T04:45:45.710Z,28.9
2019-02-05T04:46:34.962Z,28.8
2019-02-05T04:47:24.034Z,28.6
2019-02-05T04:48:14.700Z,28.5
2019-02-05T04:49:04.376Z,27.9
2019-02-05T04:49:54.427Z,27.2
2019-02-05T04:50:44.483Z,26.8
2019-02-05T04:51:37.294Z,26.6
2019-02-05T04:52:24.403Z,26.4
2019-02-05T04:53:15.020Z,26.3
2019-02-05T04:54:05.442Z,26.5
2019-02-05T04:54:54.720Z,26.9
2019-02-05T04:55:44.821Z,26.8
2019-02-05T04:56:35.056Z,27.1
2019-02-05T04:57:26.207Z,27.3
2019-02-05T04:58:15.619Z,27.6
2019-02-05T04:59:05.069Z,27.9
2019-02-05T04:59:55.379Z,28.1
2019-02-05T05:00:48.161Z,28.4
2019-02-05T05:01:35.843Z,28.7
2019-02-05T05:02:25.974Z,28.9
2019-02-05T05:03:16.118Z,29.2
2019-02-05T05:04:05.991Z,29.4
2019-02-05T05:04:54.990Z,29.6
2019-02-05T05:05:46.155Z,29.7
2019-02-05T05:06:37.243Z,29.6
2019-02-05T05:07:25.689Z,29.4
2019-02-05T05:08:16.276Z,29.3
2019-02-05T05:09:06.356Z,29.2
2019-02-05T05:09:58.475Z,29.1
2019-02-05T05:10:46.006Z,28.9
2019-02-05T05:11:36.022Z,28.8
2019-02-05T05:12:26.209Z,28.7
2019-02-05T05:13:16.206Z,28.6
2019-02-05T05:14:06.188Z,28.4
2019-02-05T05:14:56.252Z,27.9
2019-02-05T05:15:48.326Z,27.1
2019-02-05T05:16:36.005Z,26.8
2019-02-05T05:17:26.000Z,26.5
2019-02-05T05:18:19.520Z,26.3
2019-02-05T05:19:07.975Z,26.3
2019-02-05T05:19:56.575Z,26.6
2019-02-05T05:20:46.928Z,26.7
2019-02-05T05:21:37.820Z,26.8
2019-02-05T05:22:27.442Z,27.1
2019-02-05T05:23:17.372Z,27.4
2019-02-05T05:24:07.424Z,27.6
2019-02-05T05:24:59.582Z,27.9
2019-02-05T05:25:47.734Z,28.2
2019-02-05T05:26:37.242Z,28.4
2019-02-05T05:27:28.281Z,28.7
2019-02-05T05:28:20.016Z,28.9
2019-02-05T05:29:07.545Z,29.2
2019-02-05T05:29:58.292Z,29.4
2019-02-05T05:30:50.106Z,29.6
2019-02-05T05:31:38.599Z,29.7
2019-02-05T05:32:27.898Z,29.6
2019-02-05T05:33:17.959Z,29.5
2019-02-05T05:34:08.632Z,29.4
2019-02-05T05:34:58.143Z,29.2
2019-02-05T05:35:53.045Z,29.1
2019-02-05T05:36:39.466Z,28.9
2019-02-05T05:37:27.712Z,28.8
2019-02-05T05:38:18.664Z,28.7
2019-02-05T05:39:07.986Z,28.6
2019-02-05T05:40:02.539Z,28.4
2019-02-05T05:40:49.092Z,28.1
2019-02-05T05:41:38.713Z,27.3
2019-02-05T05:42:28.528Z,26.8
2019-02-05T05:43:17.986Z,26.5
2019-02-05T05:44:12.006Z,26.3
2019-02-05T05:44:58.591Z,26.2
2019-02-05T05:45:51.849Z,26.5
2019-02-05T05:46:38.708Z,26.8
2019-02-05T05:47:29.211Z,26.8
2019-02-05T05:48:19.336Z,27.1
2019-02-05T05:49:10.423Z,27.3
2019-02-05T05:49:59.126Z,27.6
2019-02-05T05:50:49.273Z,27.9
2019-02-05T05:51:40.368Z,28.1
2019-02-05T05:52:29.135Z,28.4
2019-02-05T05:53:19.415Z,28.7
2019-02-05T05:54:09.648Z,28.9
2019-02-05T05:55:02.140Z,29.1
2019-02-05T05:55:49.291Z,29.3
2019-02-05T05:56:38.264Z,29.5
2019-02-05T05:57:29.598Z,29.7
2019-02-05T05:58:34.625Z,29.6
2019-02-05T05:59:09.137Z,29.5
2019-02-05T05:59:59.613Z,29.4
2019-02-05T06:00:53.388Z,29.3
2019-02-05T06:01:39.397Z,29.2
2019-02-05T06:02:29.610Z,29.1
2019-02-05T06:03:20.238Z,28.9
2019-02-05T06:04:10.867Z,28.8
2019-02-05T06:06:25.435Z,28.4
2019-02-05T06:07:14.821Z,27.6
2019-02-05T06:08:06.400Z,27
2019-02-05T06:08:58.600Z,26.7
2019-02-05T06:09:46.077Z,26.4
2019-02-05T06:10:35.259Z,26.3
2019-02-05T06:11:25.389Z,26.3
2019-02-05T06:12:14.898Z,26.7
2019-02-05T06:13:06.297Z,26.8
2019-02-05T06:13:56.389Z,26.9
2019-02-05T06:14:47.338Z,27.2
2019-02-05T06:15:39.710Z,27.4
2019-02-05T06:16:26.581Z,27.7
2019-02-05T06:17:16.051Z,28
2019-02-05T06:18:10.514Z,28.3
2019-02-05T06:18:56.804Z,28.6
2019-02-05T06:19:46.004Z,28.8
2019-02-05T06:20:36.683Z,28.9
2019-02-05T06:21:25.841Z,29
2019-02-05T06:22:16.829Z,28.8
2019-02-05T06:23:07.378Z,28.7
2019-02-05T06:24:00.348Z,28.1
2019-02-05T06:24:46.485Z,27.4
2019-02-05T06:25:36.231Z,26.6
2019-02-05T06:26:29.782Z,25.8
2019-02-05T06:27:16.753Z,25.6
2019-02-05T06:28:07.449Z,25.9
2019-02-05T06:28:57.486Z,26.3
2019-02-05T06:29:48.193Z,26.7
2019-02-05T06:30:37.076Z,27.1
2019-02-05T06:31:27.139Z,27.3
2019-02-05T06:32:17.919Z,27.6
2019-02-05T06:33:09.496Z,28
2019-02-05T06:33:57.844Z,28.3
2019-02-05T06:34:47.658Z,28.6
2019-02-05T06:35:37.735Z,28.9
2019-02-05T06:36:28.571Z,29
2019-02-05T06:37:18.382Z,28.9
2019-02-05T06:38:08.073Z,28.8
2019-02-05T06:38:59.958Z,28.8
2019-02-05T06:39:48.483Z,28.6
2019-02-05T06:40:38.763Z,28.5
2019-02-05T06:41:27.795Z,28.4
2019-02-05T06:42:20.537Z,28.3
2019-02-05T06:43:08.182Z,28.1
2019-02-05T06:43:57.637Z,28
2019-02-05T06:44:49.237Z,27.9
2019-02-05T06:45:38.027Z,27.3
2019-02-05T06:46:28.629Z,26.7
2019-02-05T06:47:17.897Z,26.4
2019-02-05T06:48:11.651Z,26.2
2019-02-05T06:48:58.504Z,26
2019-02-05T06:49:48.741Z,25.9
2019-02-05T06:50:39.226Z,25.8
2019-02-05T06:51:28.013Z,25.6
2019-02-05T06:52:19.139Z,25.6
2019-02-05T06:53:09.256Z,25.4
2019-02-05T06:54:00.555Z,25.3
2019-02-05T06:54:48.529Z,25.3
2019-02-05T06:55:38.804Z,25.1
2019-02-05T06:56:29.448Z,25.4
2019-02-05T06:57:20.905Z,25.7
2019-02-05T06:58:09.309Z,25.9
2019-02-05T06:58:58.404Z,26.2
2019-02-05T06:59:49.759Z,26.5
2019-02-05T07:00:37.966Z,26.8
2019-02-05T07:01:29.466Z,27.1
2019-02-05T07:02:18.639Z,27.4
2019-02-05T07:03:12.171Z,27.4
2019-02-05T07:03:59.955Z,27.4
2019-02-05T07:06:25.026Z,27.1
2019-02-05T07:07:14.921Z,27
2019-02-05T07:08:05.178Z,26.9
2019-02-05T07:08:57.781Z,26.8
2019-02-05T07:09:44.777Z,26.6
2019-02-05T07:10:35.971Z,26.6
2019-02-05T07:11:26.061Z,26.3
2019-02-05T07:12:15.743Z,26.2
2019-02-05T07:13:05.730Z,26.1
2019-02-05T07:13:58.778Z,26
2019-02-05T07:14:48.200Z,25.9
2019-02-05T07:15:36.110Z,25.8
2019-02-05T07:16:25.813Z,25.7
2019-02-05T07:17:15.925Z,25.6
2019-02-05T07:18:10.641Z,25.4
2019-02-05T07:18:55.895Z,25.3
2019-02-05T07:19:46.265Z,25.3
2019-02-05T07:20:37.195Z,25.1
2019-02-05T07:21:26.375Z,25.2
2019-02-05T07:22:17.127Z,25.4
2019-02-05T07:23:06.962Z,25.7
2019-02-05T07:23:59.027Z,25.9
2019-02-05T07:24:45.790Z,26.2
2019-02-05T07:25:36.960Z,26.4
2019-02-05T07:26:26.407Z,26.8
2019-02-05T07:27:15.962Z,27.1
2019-02-05T07:28:06.070Z,27.4
2019-02-05T07:29:10.020Z,27.4
2019-02-05T07:29:49.249Z,27.4
2019-02-05T07:30:37.099Z,27.3
2019-02-05T07:31:26.804Z,27.3
2019-02-05T07:32:17.247Z,27.1
2019-02-05T07:33:08.286Z,27
2019-02-05T07:33:57.079Z,26.9
2019-02-05T07:34:47.676Z,26.8
2019-02-05T07:35:38.821Z,26.7
2019-02-05T07:36:27.135Z,26.6
2019-02-05T07:37:18.630Z,26.4
2019-02-05T07:38:07.492Z,25.8
2019-02-05T07:38:57.547Z,25.5
2019-02-05T07:39:46.987Z,25.4
2019-02-05T07:40:37.419Z,25.2
2019-02-05T07:41:29.228Z,25.1
2019-02-05T07:42:17.249Z,24.9
2019-02-05T07:43:06.276Z,24.8
2019-02-05T07:43:56.861Z,24.8
2019-02-05T07:44:49.711Z,24.6
2019-02-05T07:45:36.748Z,25.1
2019-02-05T07:46:28.162Z,25.3
2019-02-05T07:47:19.488Z,25.6
2019-02-05T07:48:07.908Z,25.9
2019-02-05T07:48:57.559Z,26.2
2019-02-05T07:49:49.213Z,26.4
2019-02-05T07:50:41.043Z,26.8
2019-02-05T07:51:28.984Z,27.1
2019-02-05T07:52:18.414Z,27.3
2019-02-05T07:53:08.455Z,27.5
2019-02-05T07:53:57.653Z,27.4
2019-02-05T07:54:48.559Z,27.4
2019-02-05T07:55:38.555Z,27.3
2019-02-05T07:56:31.850Z,27.1
2019-02-05T07:57:19.180Z,27.1
2019-02-05T07:58:09.550Z,26.9
2019-02-05T07:59:11.958Z,26.8
2019-02-05T07:59:54.210Z,26.7
2019-02-05T08:00:39.489Z,26.6
2019-02-05T08:01:28.804Z,26.4
2019-02-05T08:02:22.323Z,26.3
2019-02-05T08:03:09.690Z,25.7
2019-02-05T08:03:59.512Z,25.4
2019-02-05T08:04:49.872Z,25.3
2019-02-05T08:05:40.689Z,25.1
2019-02-05T08:06:29.359Z,24.9
2019-02-05T08:07:19.930Z,24.8
2019-02-05T08:08:24.550Z,24.8
2019-02-05T08:09:00.015Z,24.6
2019-02-05T08:09:49.569Z,24.9
2019-02-05T08:10:39.769Z,25.1
2019-02-05T08:11:31.232Z,25.6
2019-02-05T08:12:20.079Z,26.4
2019-02-05T08:13:10.499Z,26.8
2019-02-05T08:14:00.482Z,26.8
2019-02-05T08:14:50.011Z,26.9
2019-02-05T08:15:40.009Z,27.2
2019-02-05T08:16:30.524Z,27.4
2019-02-05T08:17:20.627Z,27.4
2019-02-05T08:18:10.709Z,27.4
2019-02-05T08:19:00.741Z,27.3
2019-02-05T08:19:53.564Z,27.2
2019-02-05T08:20:41.164Z,27.1
2019-02-05T08:21:31.037Z,27
2019-02-05T08:22:21.055Z,26.9
2019-02-05T08:23:10.796Z,26.8
2019-02-05T08:24:00.793Z,26.6
2019-02-05T08:24:51.359Z,26.5
2019-02-05T08:25:43.181Z,26.4
2019-02-05T08:26:31.236Z,25.9
2019-02-05T08:27:20.818Z,25.8
2019-02-05T08:28:11.641Z,25.6
2019-02-05T08:29:03.306Z,25.4
2019-02-05T08:29:50.642Z,25.3
2019-02-05T08:30:40.773Z,25.2
2019-02-05T08:31:31.423Z,25.1
2019-02-05T08:32:22.009Z,25
2019-02-05T08:33:11.004Z,24.9
2019-02-05T08:34:04.430Z,24.8
2019-02-05T08:34:54.952Z,25
2019-02-05T08:35:41.388Z,25.3
2019-02-05T08:36:31.930Z,25.7
2019-02-05T08:37:22.900Z,26.4
2019-02-05T08:38:11.558Z,26.6
2019-02-05T08:39:02.370Z,26.7
2019-02-05T08:39:50.320Z,26.9
2019-02-05T08:40:44.593Z,27.1
2019-02-05T08:41:30.450Z,27.3
2019-02-05T08:42:21.292Z,27.5
2019-02-05T08:43:11.600Z,27.5
2019-02-05T08:44:04.289Z,27.4
2019-02-05T08:44:52.235Z,27.3
2019-02-05T08:45:42.226Z,27.2
2019-02-05T08:46:33.835Z,27.1
2019-02-05T08:47:22.647Z,26.9
2019-02-05T08:48:12.752Z,26.9
2019-02-05T08:49:03.344Z,26.8
2019-02-05T08:49:55.087Z,26.6
2019-02-05T08:50:42.839Z,26.5
2019-02-05T08:51:31.605Z,26.4
2019-02-05T08:52:22.772Z,26.3
2019-02-05T08:53:12.397Z,26.2
2019-02-05T08:54:02.891Z,26.1
2019-02-05T08:54:53.064Z,25.9
2019-02-05T08:55:45.941Z,25.9
2019-02-05T08:56:32.606Z,25.8
2019-02-05T08:57:23.379Z,25.6
2019-02-05T08:58:13.076Z,25.5
2019-02-05T08:59:03.201Z,25.4
2019-02-05T08:59:53.684Z,25.4
2019-02-05T09:00:44.647Z,25.3
2019-02-05T09:01:36.711Z,24.9
2019-02-05T09:02:22.886Z,25.3
2019-02-05T09:03:14.416Z,25.6
2019-02-05T09:04:03.633Z,26.4
2019-02-05T09:04:54.734Z,26.6
2019-02-05T09:05:44.496Z,26.6
2019-02-05T09:06:37.807Z,26.8
2019-02-05T09:07:25.536Z,27
2019-02-05T09:08:14.314Z,27.3
2019-02-05T09:09:04.228Z,27.4
2019-02-05T09:09:54.288Z,27.5
2019-02-05T09:10:46.045Z,27.4
2019-02-05T09:11:33.399Z,27.3
2019-02-05T09:12:27.278Z,27.3
2019-02-05T09:13:13.991Z,27.1
2019-02-05T09:14:18.803Z,27
2019-02-05T09:14:53.621Z,26.8
2019-02-05T09:15:44.261Z,26.8
2019-02-05T09:16:36.995Z,26.6
2019-02-05T09:17:27.367Z,26.5
2019-02-05T09:18:13.596Z,26.4
2019-02-05T09:19:05.289Z,26.3
2019-02-05T09:19:54.520Z,26.2
2019-02-05T09:20:44.222Z,26.1
2019-02-05T09:21:35.023Z,26
2019-02-05T09:22:27.103Z,25.9
2019-02-05T09:23:18.320Z,25.8
2019-02-05T09:24:04.958Z,25.7
2019-02-05T09:24:54.552Z,25.6
2019-02-05T09:25:50.246Z,25.5
2019-02-05T09:26:35.392Z,25.4
2019-02-05T09:27:26.082Z,25.3
2019-02-05T09:28:15.853Z,25.1
2019-02-05T09:29:05.930Z,25
2019-02-05T09:29:55.604Z,25.3
2019-02-05T09:30:46.552Z,25.9
2019-02-05T09:31:38.294Z,26.6
2019-02-05T09:32:25.559Z,26.4
2019-02-05T09:33:16.034Z,26.6
2019-02-05T09:34:05.736Z,26.8
2019-02-05T09:34:56.319Z,26.9
2019-02-05T09:35:45.934Z,27.3
2019-02-05T09:36:34.907Z,27.5
2019-02-05T09:37:27.651Z,27.5
2019-02-05T09:38:32.878Z,27.4
2019-02-05T09:39:56.666Z,27.3
2019-02-05T09:40:47.187Z,27.1
2019-02-05T09:41:35.631Z,26.9
2019-02-05T09:42:25.841Z,26.9
2019-02-05T09:43:18.061Z,26.8
2019-02-05T09:44:06.336Z,26.6
2019-02-05T09:44:57.333Z,26.5
2019-02-05T09:45:46.886Z,26.4
2019-02-05T09:46:39.452Z,26.3
2019-02-05T09:47:27.461Z,26.2
2019-02-05T09:48:17.478Z,26.1
2019-02-05T09:49:21.178Z,25.9
2019-02-05T09:49:57.270Z,25.9
2019-02-05T09:50:54.638Z,25.8
2019-02-05T09:51:37.963Z,25.6
2019-02-05T09:52:30.054Z,25.6
2019-02-05T09:53:17.623Z,25.4
2019-02-05T09:54:07.340Z,25.4
2019-02-05T09:54:57.312Z,25.3
2019-02-05T09:55:51.348Z,25.1
2019-02-05T09:56:37.545Z,25
2019-02-05T09:57:27.728Z,25.3
2019-02-05T09:58:18.425Z,25.9
2019-02-05T09:59:08.203Z,26.6
2019-02-05T09:59:56.430Z,26.4
2019-02-05T10:00:48.280Z,26.6
2019-02-05T10:01:38.763Z,26.8
2019-02-05T10:02:28.970Z,26.9
2019-02-05T10:03:18.638Z,27.3
2019-02-05T10:04:08.675Z,27.4
2019-02-05T10:04:58.505Z,27.4
2019-02-05T10:07:40.798Z,27.2
2019-02-05T10:08:18.942Z,27.1
2019-02-05T10:09:21.657Z,26.9
2019-02-05T10:10:14.977Z,26.8
2019-02-05T10:10:49.337Z,26.7
2019-02-05T10:12:36.371Z,26.4
2019-02-05T10:14:13.116Z,26.4
2019-02-05T10:14:56.534Z,26.1
2019-02-05T10:15:58.596Z,26.1
2019-02-05T10:16:27.157Z,25.9
2019-02-05T10:17:15.249Z,25.9
2019-02-05T10:18:38.936Z,25.8
2019-02-05T10:18:55.194Z,25.6
2019-02-05T10:20:13.529Z,25.6
2019-02-05T10:20:49.886Z,25.4
2019-02-05T10:22:20.393Z,25.4
2019-02-05T10:23:03.881Z,25.2
2019-02-05T10:23:39.034Z,24.9
2019-02-05T10:24:43.705Z,25.1
2019-02-05T10:25:32.614Z,25.6
2019-02-05T10:27:01.887Z,26.3
2019-02-05T10:27:47.454Z,26.3
2019-02-05T10:28:37.503Z,26.5
2019-02-05T10:29:30.925Z,26.8
2019-02-05T10:30:15.968Z,27.1
2019-02-05T10:31:06.798Z,27.3
2019-02-05T10:32:12.927Z,27.5
2019-02-05T10:32:47.785Z,27.4
2019-02-05T10:33:37.660Z,27.4
2019-02-05T10:34:39.955Z,27.3
2019-02-05T10:35:19.790Z,27.2
2019-02-05T10:36:11.054Z,27.1
2019-02-05T10:36:57.535Z,26.9
2019-02-05T10:38:02.892Z,26.8
2019-02-05T10:38:39.379Z,26.7
2019-02-05T10:39:29.094Z,26.6
2019-02-05T10:40:18.349Z,26.5
2019-02-05T10:41:08.605Z,26.4
2019-02-05T10:41:58.577Z,26.3
2019-02-05T10:42:51.308Z,26.1
2019-02-05T10:43:38.613Z,26.1
2019-02-05T10:44:30.944Z,25.9
2019-02-05T10:45:51.418Z,25.8
2019-02-05T10:46:08.102Z,25.7
2019-02-05T10:46:57.763Z,25.6
2019-02-05T10:47:47.727Z,25.6
2019-02-05T10:48:39.132Z,25.4
2019-02-05T10:49:29.354Z,25.4
2019-02-05T10:50:22.073Z,25.3
2019-02-05T10:51:08.040Z,24.9
2019-02-05T10:51:57.778Z,25
2019-02-05T10:52:48.802Z,25.4
2019-02-05T10:53:38.895Z,26.2
2019-02-05T10:54:28.810Z,26.2
2019-02-05T10:55:18.907Z,26.3
2019-02-05T10:56:11.179Z,26.6
2019-02-05T10:56:58.839Z,26.8
2019-02-05T10:57:49.539Z,27.1
2019-02-05T10:58:38.576Z,27.4
2019-02-05T10:59:31.893Z,27.5
2019-02-05T11:00:33.452Z,27.4
2019-02-05T11:01:09.317Z,27.3
2019-02-05T11:02:00.706Z,27.3
2019-02-05T11:02:50.801Z,27.1
2019-02-05T11:03:39.682Z,27.1
2019-02-05T11:04:30.236Z,26.9
2019-02-05T11:05:21.806Z,26.8
2019-02-05T11:06:09.014Z,26.7
2019-02-05T11:06:59.693Z,26.6
2019-02-05T11:07:50.183Z,26.4
2019-02-05T11:08:54.915Z,26.3
2019-02-05T11:09:30.048Z,26.2
2019-02-05T11:10:19.896Z,26.1
2019-02-05T11:11:12.910Z,26
2019-02-05T11:12:00.385Z,25.9
2019-02-05T11:12:50.093Z,25.8
2019-02-05T11:13:40.110Z,25.8
2019-02-05T11:14:31.175Z,25.6
2019-02-05T11:15:21.328Z,25.6
2019-02-05T11:16:11.005Z,25.5
2019-02-05T11:17:00.945Z,25.3
2019-02-05T11:17:50.638Z,25.3
2019-02-05T11:18:41.208Z,24.8
2019-02-05T11:19:30.597Z,25.1
2019-02-05T11:20:23.662Z,25.7
2019-02-05T11:21:13.914Z,25.9
2019-02-05T11:22:00.745Z,26
2019-02-05T11:22:51.419Z,26.3
2019-02-05T11:23:41.855Z,26.6